Time;durP1;ratioP1;P1;durP2;ratioP2;P2;SDS_P1;SDS_P2;PMS_P1;PMS_P2;Temp;Humidity;BMP_temperature;BMP_pressure;BME280_temperature;BME280_humidity;BME280_pressure;Samples;Min_cycle;Max_cycle;Signal;HPM_P1;HPM_P2
2023/08/27 00:01:03;;;;;;;12.02;5.20;;;;;;;;;;4956961;28;20035;-38
2023/08/27 00:03:29;;;;;;;9.90;5.32;;;;;;;;;;4956643;29;20065;-39
2023/08/27 00:05:54;;;;;;;13.80;5.90;;;;;;;;;;4956967;28;20117;-40
2023/08/27 00:08:20;;;;;;;12.75;5.25;;;;;;;;;;4954878;28;20062;-40
2023/08/27 00:10:45;;;;;;;8.60;5.47;;;;;;;;;;4956501;28;20085;-40
2023/08/27 00:13:11;;;;;;;10.55;5.55;;;;;;;;;;4951454;29;20066;-41
2023/08/27 00:15:44;;;;;;;23.55;6.50;;;;;;;;;;4951822;28;20044;-40
2023/08/27 00:18:09;;;;;;;17.60;5.47;;;;;;;;;;4952376;28;20466;-39
2023/08/27 00:20:35;;;;;;;12.30;5.35;;;;;;;;;;4956736;28;20114;-42
2023/08/27 00:23:00;;;;;;;11.77;5.20;;;;;;;;;;4958139;28;20404;-40
2023/08/27 00:25:25;;;;;;;10.43;4.63;;;;;;;;;;4953956;28;20401;-42
2023/08/27 00:27:51;;;;;;;20.88;4.93;;;;;;;;;;4957785;28;20038;-39
2023/08/27 00:30:16;;;;;;;11.98;4.55;;;;;;;;;;4956178;28;20059;-43
2023/08/27 00:32:42;;;;;;;15.18;4.70;;;;;;;;;;4953622;28;20031;-40
2023/08/27 00:35:08;;;;;;;17.00;4.70;;;;;;;;;;4952897;28;20138;-43
2023/08/27 00:37:33;;;;;;;14.32;4.75;;;;;;;;;;4957044;28;20050;-39
2023/08/27 00:39:58;;;;;;;17.70;4.72;;;;;;;;;;4956200;28;20039;-44
2023/08/27 00:42:24;;;;;;;24.80;5.65;;;;;;;;;;4957836;29;20031;-43
2023/08/27 00:44:49;;;;;;;19.85;4.88;;;;;;;;;;4951908;28;20044;-40
2023/08/27 00:47:15;;;;;;;12.98;3.72;;;;;;;;;;4955403;28;20043;-41
2023/08/27 00:49:42;;;;;;;12.50;4.32;;;;;;;;;;4957436;28;20038;-40
2023/08/27 00:52:09;;;;;;;17.48;3.95;;;;;;;;;;4953445;28;20039;-40
2023/08/27 00:54:35;;;;;;;13.45;4.50;;;;;;;;;;4951906;28;20036;-42
2023/08/27 00:57:03;;;;;;;12.23;3.58;;;;;;;;;;4956125;28;20046;-40
2023/08/27 00:59:29;;;;;;;13.82;3.60;;;;;;;;;;4955203;28;20736;-42
2023/08/27 01:01:55;;;;;;;18.10;4.32;;;;;;;;;;4950827;28;20038;-41
2023/08/27 01:04:20;;;;;;;12.50;3.60;;;;;;;;;;4947899;28;20131;-39
2023/08/27 01:06:46;;;;;;;15.95;4.18;;;;;;;;;;4953704;29;20063;-39
2023/08/27 01:09:22;;;;;;;13.00;3.88;;;;;;;;;;4949986;28;20040;-42
2023/08/27 01:12:10;;;;;;;15.50;4.55;;;;;;;;;;4957791;28;20484;-40
2023/08/27 01:14:37;;;;;;;14.98;3.70;;;;;;;;;;4944496;28;20446;-41
2023/08/27 01:17:06;;;;;;;18.13;3.97;;;;;;;;;;4954968;28;20027;-40
2023/08/27 01:19:33;;;;;;;15.43;4.45;;;;;;;;;;4957137;28;20124;-41
2023/08/27 01:21:58;;;;;;;15.52;5.07;;;;;;;;;;4956622;28;20090;-41
2023/08/27 01:24:24;;;;;;;14.57;5.20;;;;;;;;;;4956859;28;20035;-41
2023/08/27 01:27:12;;;;;;;16.48;4.60;;;;;;;;;;4956003;28;20435;-43
2023/08/27 01:30:10;;;;;;;15.30;4.80;;;;;;;;;;4945834;28;20070;-42
2023/08/27 01:32:47;;;;;;;14.05;3.70;;;;;;;;;;4953005;29;20503;-40
2023/08/27 01:35:15;;;;;;;16.85;4.68;;;;;;;;;;4945891;28;20039;-40
2023/08/27 01:37:41;;;;;;;14.68;4.47;;;;;;;;;;4938924;29;20500;-41
2023/08/27 01:40:08;;;;;;;16.95;4.18;;;;;;;;;;4951716;28;20039;-41
2023/08/27 01:42:35;;;;;;;13.48;4.00;;;;;;;;;;4952155;29;20030;-41
2023/08/27 01:45:03;;;;;;;17.58;5.15;;;;;;;;;;4956884;28;20047;-40
2023/08/27 01:47:30;;;;;;;17.88;4.07;;;;;;;;;;4954031;28;20019;-42
2023/08/27 01:49:55;;;;;;;13.57;4.32;;;;;;;;;;4955757;28;20043;-44
2023/08/27 01:52:21;;;;;;;9.35;4.50;;;;;;;;;;4955865;28;20110;-41
2023/08/27 01:54:46;;;;;;;12.63;5.00;;;;;;;;;;4951539;28;20114;-41
2023/08/27 01:57:12;;;;;;;14.90;5.05;;;;;;;;;;4954164;28;20027;-41
2023/08/27 01:59:37;;;;;;;16.05;5.18;;;;;;;;;;4951837;28;20035;-40
2023/08/27 02:02:03;;;;;;;15.50;5.10;;;;;;;;;;4949763;29;20367;-40
2023/08/27 02:04:28;;;;;;;9.48;4.18;;;;;;;;;;4953381;28;20069;-39
2023/08/27 02:06:53;;;;;;;10.65;4.85;;;;;;;;;;4954766;28;20106;-40
2023/08/27 02:09:19;;;;;;;14.85;5.00;;;;;;;;;;4953050;28;20031;-40
2023/08/27 02:11:44;;;;;;;13.75;4.25;;;;;;;;;;4966150;28;20034;-42
2023/08/27 02:14:10;;;;;;;13.38;4.57;;;;;;;;;;4964060;28;20039;-41
2023/08/27 02:16:37;;;;;;;7.97;4.20;;;;;;;;;;4957839;28;20023;-38
2023/08/27 02:19:03;;;;;;;11.55;4.10;;;;;;;;;;4958491;28;20043;-39
2023/08/27 02:21:29;;;;;;;9.18;3.55;;;;;;;;;;4957123;28;20034;-42
2023/08/27 02:23:55;;;;;;;4.60;2.55;;;;;;;;;;4951690;28;20031;-39
2023/08/27 02:26:20;;;;;;;3.47;1.88;;;;;;;;;;4958195;28;20086;-39
2023/08/27 02:28:46;;;;;;;3.13;1.73;;;;;;;;;;4953733;28;20063;-43
2023/08/27 02:31:13;;;;;;;1.73;1.58;;;;;;;;;;4960381;28;20031;-40
2023/08/27 02:33:41;;;;;;;3.95;1.75;;;;;;;;;;4959943;28;20075;-40
2023/08/27 02:36:06;;;;;;;2.15;1.65;;;;;;;;;;4956068;28;20048;-43
2023/08/27 02:38:32;;;;;;;4.32;1.70;;;;;;;;;;4959826;28;20154;-40
2023/08/27 02:40:58;;;;;;;1.85;1.70;;;;;;;;;;4959442;28;20035;-39
2023/08/27 02:43:23;;;;;;;3.67;1.77;;;;;;;;;;4957586;29;20485;-39
2023/08/27 02:45:48;;;;;;;1.92;1.67;;;;;;;;;;4956383;28;20027;-39
2023/08/27 02:48:14;;;;;;;2.13;1.50;;;;;;;;;;4957379;29;20043;-38
2023/08/27 02:50:39;;;;;;;4.40;1.85;;;;;;;;;;4954683;28;20122;-39
2023/08/27 02:53:05;;;;;;;2.83;2.42;;;;;;;;;;4956154;29;20027;-43
2023/08/27 02:55:34;;;;;;;3.30;2.35;;;;;;;;;;4956239;28;20055;-40
2023/08/27 02:57:59;;;;;;;3.63;2.30;;;;;;;;;;4958308;29;20046;-38
2023/08/27 03:00:25;;;;;;;5.55;1.85;;;;;;;;;;4952992;29;20047;-39
2023/08/27 03:02:51;;;;;;;3.50;2.20;;;;;;;;;;4959793;28;20041;-39
2023/08/27 03:05:17;;;;;;;2.25;1.80;;;;;;;;;;4954168;28;20107;-41
2023/08/27 03:07:43;;;;;;;5.78;2.63;;;;;;;;;;4952542;29;20112;-40
2023/08/27 03:10:09;;;;;;;6.03;2.20;;;;;;;;;;4957703;28;20047;-40
2023/08/27 03:12:34;;;;;;;3.67;2.10;;;;;;;;;;4957834;28;20031;-39
2023/08/27 03:14:59;;;;;;;3.75;2.78;;;;;;;;;;4953924;28;20410;-39
2023/08/27 03:17:25;;;;;;;5.20;3.47;;;;;;;;;;4957193;28;20050;-40
2023/08/27 03:19:50;;;;;;;10.23;3.03;;;;;;;;;;4948799;29;20054;-42
2023/08/27 03:22:16;;;;;;;4.70;2.90;;;;;;;;;;4959277;28;20038;-42
2023/08/27 03:24:41;;;;;;;6.07;3.05;;;;;;;;;;4958330;28;20039;-39
2023/08/27 03:27:07;;;;;;;3.38;2.80;;;;;;;;;;4955646;28;20542;-39
2023/08/27 03:29:32;;;;;;;6.03;3.20;;;;;;;;;;4958112;28;20059;-39
2023/08/27 03:31:58;;;;;;;8.55;3.58;;;;;;;;;;4958979;28;20115;-40
2023/08/27 03:34:23;;;;;;;11.57;3.70;;;;;;;;;;4952697;29;20066;-39
2023/08/27 03:36:49;;;;;;;9.98;3.80;;;;;;;;;;4953638;29;20495;-40
2023/08/27 03:39:15;;;;;;;6.10;4.03;;;;;;;;;;4952586;28;20054;-43
2023/08/27 03:41:40;;;;;;;5.60;4.05;;;;;;;;;;4957392;28;20035;-38
2023/08/27 03:44:05;;;;;;;7.22;4.40;;;;;;;;;;4957037;28;20078;-39
2023/08/27 03:46:31;;;;;;;11.25;4.45;;;;;;;;;;4956276;29;20126;-39
2023/08/27 03:49:00;;;;;;;10.13;4.70;;;;;;;;;;4958167;28;20031;-38
2023/08/27 03:51:28;;;;;;;6.07;4.22;;;;;;;;;;4950095;28;20055;-39
2023/08/27 03:53:55;;;;;;;9.43;4.93;;;;;;;;;;4958531;28;20045;-41
2023/08/27 03:56:20;;;;;;;12.00;5.45;;;;;;;;;;4957361;28;20023;-39
2023/08/27 03:58:46;;;;;;;14.55;4.90;;;;;;;;;;4945256;29;20098;-38
2023/08/27 04:01:11;;;;;;;13.70;5.40;;;;;;;;;;4954517;29;20023;-39
2023/08/27 04:03:36;;;;;;;12.15;5.18;;;;;;;;;;4949146;29;20062;-41
2023/08/27 04:06:05;;;;;;;12.23;4.80;;;;;;;;;;4955167;29;20086;-39
2023/08/27 04:08:31;;;;;;;8.43;4.85;;;;;;;;;;4956122;28;20031;-39
2023/08/27 04:10:56;;;;;;;8.35;4.68;;;;;;;;;;4952117;28;20037;-41
2023/08/27 04:13:21;;;;;;;10.65;5.22;;;;;;;;;;4957011;28;20023;-38
2023/08/27 04:16:00;;;;;;;13.23;4.95;;;;;;;;;;4953873;28;20094;-40
2023/08/27 04:18:27;;;;;;;15.90;5.95;;;;;;;;;;4955321;28;20082;-38
2023/08/27 04:20:52;;;;;;;17.77;6.05;;;;;;;;;;4956565;28;20094;-40
2023/08/27 04:23:18;;;;;;;18.38;5.88;;;;;;;;;;4954378;28;20031;-41
2023/08/27 04:25:44;;;;;;;12.30;5.57;;;;;;;;;;4948566;29;20039;-42
2023/08/27 04:28:09;;;;;;;14.55;5.57;;;;;;;;;;4948991;28;20031;-39
2023/08/27 04:30:35;;;;;;;15.60;5.40;;;;;;;;;;4939949;28;20043;-40
2023/08/27 04:33:00;;;;;;;14.02;5.85;;;;;;;;;;4947834;29;20023;-41
2023/08/27 04:35:26;;;;;;;19.45;6.63;;;;;;;;;;4956361;28;20462;-41
2023/08/27 04:37:51;;;;;;;18.30;7.05;;;;;;;;;;4952237;28;20035;-40
2023/08/27 04:40:17;;;;;;;12.43;3.03;;;;;;;;;;4955877;28;20039;-43
2023/08/27 04:42:42;;;;;;;25.02;4.13;;;;;;;;;;4957872;28;20527;-41
2023/08/27 04:45:09;;;;;;;12.27;2.63;;;;;;;;;;4955064;28;20783;-41
2023/08/27 04:47:34;;;;;;;5.75;2.10;;;;;;;;;;4945095;28;20082;-43
2023/08/27 04:50:00;;;;;;;4.10;1.60;;;;;;;;;;4941950;28;20047;-39
2023/08/27 04:52:25;;;;;;;7.47;2.05;;;;;;;;;;4956291;28;20038;-41
2023/08/27 04:54:51;;;;;;;11.90;3.15;;;;;;;;;;4957020;28;20035;-40
2023/08/27 05:00:02;;;;;;;2.20;0.90;;;;;;;;;;5091248;27;20602;-51
2023/08/27 05:02:27;;;;;;;1.13;0.35;;;;;;;;;;5069479;28;20067;-52
2023/08/27 05:04:52;;;;;;;0.90;0.80;;;;;;;;;;5069116;28;20519;-49
2023/08/27 05:07:18;;;;;;;0.00;0.00;;;;;;;;;;5064810;28;20497;-37
2023/08/27 05:09:45;;;;;;;0.00;0.00;;;;;;;;;;5062766;28;20552;-38
2023/08/27 05:12:11;;;;;;;0.43;0.35;;;;;;;;;;5073056;28;20500;-39
2023/08/27 05:14:36;;;;;;;0.00;0.00;;;;;;;;;;5067580;28;20024;-38
2023/08/27 05:17:01;;;;;;;0.00;0.00;;;;;;;;;;5070588;28;20052;-38
2023/08/27 05:19:27;;;;;;;0.60;0.60;;;;;;;;;;5071534;28;20432;-37
2023/08/27 05:21:52;;;;;;;0.00;0.00;;;;;;;;;;5071125;28;20032;-37
2023/08/27 05:24:18;;;;;;;0.03;0.03;;;;;;;;;;5081859;28;20108;-38
2023/08/27 05:26:44;;;;;;;0.00;0.00;;;;;;;;;;5108059;28;20038;-37
2023/08/27 05:29:09;;;;;;;2.75;0.13;;;;;;;;;;5107913;28;20114;-37
2023/08/27 05:31:35;;;;;;;0.38;0.28;;;;;;;;;;5109564;28;20036;-38
2023/08/27 05:34:00;;;;;;;1.38;1.27;;;;;;;;;;5112495;28;20516;-37
2023/08/27 05:36:26;;;;;;;0.10;0.10;;;;;;;;;;5109914;28;20392;-38
2023/08/27 05:38:51;;;;;;;0.00;0.00;;;;;;;;;;5112496;28;20028;-37
2023/08/27 05:41:17;;;;;;;0.20;0.20;;;;;;;;;;5108508;28;20473;-38
2023/08/27 05:43:43;;;;;;;0.40;0.40;;;;;;;;;;5103268;28;20532;-37
2023/08/27 05:46:08;;;;;;;0.20;0.17;;;;;;;;;;5104228;28;20034;-37
2023/08/27 05:48:34;;;;;;;0.38;0.38;;;;;;;;;;5110631;28;20027;-38
2023/08/27 05:51:00;;;;;;;0.32;0.32;;;;;;;;;;5107562;28;20050;-37
2023/08/27 05:53:25;;;;;;;0.20;0.20;;;;;;;;;;5105037;28;20020;-38
2023/08/27 05:55:51;;;;;;;0.35;0.35;;;;;;;;;;5101000;28;20064;-37
2023/08/27 05:58:16;;;;;;;0.08;0.00;;;;;;;;;;5111480;28;20169;-38
2023/08/27 06:00:42;;;;;;;0.22;0.22;;;;;;;;;;5110338;28;20036;-37
2023/08/27 06:03:07;;;;;;;0.00;0.00;;;;;;;;;;5110582;28;20032;-37
2023/08/27 06:05:33;;;;;;;0.10;0.10;;;;;;;;;;5108925;28;20028;-38
2023/08/27 06:08:02;;;;;;;9.88;0.63;;;;;;;;;;5110994;28;20020;-38
2023/08/27 06:10:28;;;;;;;0.00;0.00;;;;;;;;;;5101967;28;20489;-37
2023/08/27 06:12:54;;;;;;;0.10;0.10;;;;;;;;;;5095900;28;20032;-38
2023/08/27 06:15:20;;;;;;;0.25;0.25;;;;;;;;;;5095874;28;20063;-38
2023/08/27 06:17:45;;;;;;;0.15;0.15;;;;;;;;;;5098363;28;20016;-38
2023/08/27 06:20:11;;;;;;;0.22;0.22;;;;;;;;;;5096901;28;20078;-38
2023/08/27 06:22:36;;;;;;;0.40;0.40;;;;;;;;;;5097853;28;20028;-37
2023/08/27 06:25:02;;;;;;;0.17;0.17;;;;;;;;;;5096240;28;20390;-37
2023/08/27 06:27:27;;;;;;;0.08;0.08;;;;;;;;;;5096895;28;20457;-37
2023/08/27 06:29:52;;;;;;;0.22;0.22;;;;;;;;;;5092885;28;20143;-37
2023/08/27 06:32:18;;;;;;;2.00;0.32;;;;;;;;;;5094384;28;20144;-39
2023/08/27 06:34:43;;;;;;;0.10;0.10;;;;;;;;;;5085041;28;20392;-37
2023/08/27 06:37:09;;;;;;;1.88;0.93;;;;;;;;;;5095962;28;20032;-38
2023/08/27 06:39:34;;;;;;;0.10;0.10;;;;;;;;;;5087116;28;20050;-37
2023/08/27 06:41:59;;;;;;;0.70;0.52;;;;;;;;;;5093960;28;20035;-37
2023/08/27 06:44:25;;;;;;;1.20;1.00;;;;;;;;;;5087226;28;20392;-38
2023/08/27 06:46:50;;;;;;;1.35;0.20;;;;;;;;;;5092287;28;20488;-37
2023/08/27 06:49:16;;;;;;;0.20;0.20;;;;;;;;;;5083854;28;20036;-38
2023/08/27 06:51:41;;;;;;;0.03;0.03;;;;;;;;;;5091949;28;20028;-38
2023/08/27 06:54:07;;;;;;;0.20;0.20;;;;;;;;;;5091147;28;20037;-38
2023/08/27 06:56:33;;;;;;;2.08;1.58;;;;;;;;;;5093391;28;20042;-37
2023/08/27 06:58:58;;;;;;;0.10;0.10;;;;;;;;;;5087547;28;20044;-38
2023/08/27 07:01:24;;;;;;;0.08;0.08;;;;;;;;;;5090360;28;20037;-38
2023/08/27 07:03:49;;;;;;;0.20;0.20;;;;;;;;;;5086076;28;20047;-38
2023/08/27 07:06:14;;;;;;;0.52;0.52;;;;;;;;;;5095915;28;20035;-37
2023/08/27 07:08:40;;;;;;;2.30;0.43;;;;;;;;;;5096450;28;20046;-38
2023/08/27 07:11:06;;;;;;;0.10;0.10;;;;;;;;;;5090874;28;20187;-38
2023/08/27 07:13:31;;;;;;;0.00;0.00;;;;;;;;;;5097737;28;20039;-37
2023/08/27 07:16:00;;;;;;;0.10;0.10;;;;;;;;;;5087764;28;20101;-38
2023/08/27 07:18:26;;;;;;;0.30;0.13;;;;;;;;;;5096109;28;20082;-38
2023/08/27 07:20:51;;;;;;;0.00;0.00;;;;;;;;;;5090491;28;20036;-38
2023/08/27 07:23:17;;;;;;;0.00;0.00;;;;;;;;;;5095922;28;20107;-38
2023/08/27 07:25:42;;;;;;;0.10;0.10;;;;;;;;;;5095824;28;20673;-38
2023/08/27 07:28:08;;;;;;;0.90;0.40;;;;;;;;;;5084747;28;20020;-38
2023/08/27 07:30:33;;;;;;;0.40;0.40;;;;;;;;;;5095428;28;20032;-39
2023/08/27 07:32:59;;;;;;;0.20;0.20;;;;;;;;;;5085613;28;20111;-38
2023/08/27 07:35:24;;;;;;;0.38;0.32;;;;;;;;;;5096436;28;20520;-38
2023/08/27 07:37:50;;;;;;;0.08;0.08;;;;;;;;;;5093102;28;20039;-38
2023/08/27 07:40:16;;;;;;;0.90;0.40;;;;;;;;;;5092936;28;20028;-39
2023/08/27 07:42:41;;;;;;;0.50;0.50;;;;;;;;;;5099720;28;20507;-38
2023/08/27 07:45:07;;;;;;;0.60;0.30;;;;;;;;;;5101328;28;20127;-38
2023/08/27 07:47:33;;;;;;;1.30;0.43;;;;;;;;;;5095263;28;20031;-38
2023/08/27 07:49:59;;;;;;;0.00;0.00;;;;;;;;;;5096379;28;20035;-38
2023/08/27 07:52:24;;;;;;;0.17;0.17;;;;;;;;;;5094164;28;20040;-39
2023/08/27 07:54:50;;;;;;;0.20;0.20;;;;;;;;;;5095346;28;20040;-39
2023/08/27 07:57:16;;;;;;;0.00;0.00;;;;;;;;;;5083856;28;20099;-38
2023/08/27 07:59:43;;;;;;;0.10;0.10;;;;;;;;;;5091831;28;20036;-38
2023/08/27 08:02:08;;;;;;;0.10;0.10;;;;;;;;;;5094502;28;20584;-39
2023/08/27 08:04:33;;;;;;;0.80;0.35;;;;;;;;;;5096389;28;20075;-38
2023/08/27 08:06:59;;;;;;;2.60;1.85;;;;;;;;;;5095121;28;20039;-38
2023/08/27 08:09:24;;;;;;;0.20;0.20;;;;;;;;;;5095305;28;20076;-38
2023/08/27 08:11:50;;;;;;;0.63;0.25;;;;;;;;;;5095838;28;20028;-39
2023/08/27 08:14:15;;;;;;;0.88;0.22;;;;;;;;;;5095445;28;20032;-38
2023/08/27 08:16:40;;;;;;;0.15;0.15;;;;;;;;;;5095723;28;20050;-38
2023/08/27 08:19:06;;;;;;;0.00;0.00;;;;;;;;;;5094079;28;20094;-39
2023/08/27 08:21:31;;;;;;;0.10;0.10;;;;;;;;;;5087848;28;20028;-38
2023/08/27 08:23:57;;;;;;;0.08;0.08;;;;;;;;;;5095646;28;20473;-39
2023/08/27 08:26:22;;;;;;;0.25;0.25;;;;;;;;;;5100439;28;20054;-38
2023/08/27 08:28:48;;;;;;;1.45;0.63;;;;;;;;;;5101500;28;20024;-37
2023/08/27 08:31:13;;;;;;;0.00;0.00;;;;;;;;;;5080447;28;20028;-38
2023/08/27 08:33:39;;;;;;;0.00;0.00;;;;;;;;;;5084468;28;20086;-38
2023/08/27 08:36:05;;;;;;;0.00;0.00;;;;;;;;;;5085409;28;20122;-39
2023/08/27 08:38:30;;;;;;;0.10;0.10;;;;;;;;;;5094694;28;20028;-38
2023/08/27 08:41:01;;;;;;;0.13;0.13;;;;;;;;;;5088650;28;20048;-39
2023/08/27 08:43:31;;;;;;;0.10;0.10;;;;;;;;;;5095600;28;20469;-38
2023/08/27 08:46:03;;;;;;;0.45;0.30;;;;;;;;;;5091495;28;20036;-38
2023/08/27 08:48:38;;;;;;;0.08;0.08;;;;;;;;;;5094508;28;20099;-38
2023/08/27 08:51:05;;;;;;;0.03;0.03;;;;;;;;;;5087106;28;20052;-38
2023/08/27 08:53:32;;;;;;;0.05;0.00;;;;;;;;;;5093230;28;20020;-38
2023/08/27 08:55:58;;;;;;;0.10;0.10;;;;;;;;;;5090925;28;20720;-38
2023/08/27 08:58:27;;;;;;;0.05;0.05;;;;;;;;;;5091295;28;20040;-38
2023/08/27 09:00:55;;;;;;;0.10;0.10;;;;;;;;;;5091045;28;20528;-38
2023/08/27 09:03:22;;;;;;;0.88;0.40;;;;;;;;;;5088359;28;20020;-38
2023/08/27 09:05:50;;;;;;;0.55;0.40;;;;;;;;;;5088748;28;20044;-37
2023/08/27 09:08:15;;;;;;;0.57;0.57;;;;;;;;;;5090365;28;20023;-39
2023/08/27 09:10:41;;;;;;;0.40;0.38;;;;;;;;;;5091517;28;20036;-39
2023/08/27 09:13:06;;;;;;;5.07;1.08;;;;;;;;;;5086087;28;20020;-38
2023/08/27 09:15:31;;;;;;;0.20;0.20;;;;;;;;;;5088878;28;20028;-39
2023/08/27 09:17:57;;;;;;;1.13;0.75;;;;;;;;;;5088839;28;20067;-38
2023/08/27 09:20:23;;;;;;;0.30;0.30;;;;;;;;;;5087065;28;20056;-38
2023/08/27 09:22:49;;;;;;;0.28;0.28;;;;;;;;;;5088385;28;20032;-37
2023/08/27 09:25:14;;;;;;;0.30;0.30;;;;;;;;;;5091828;28;20043;-38
2023/08/27 09:27:40;;;;;;;0.10;0.10;;;;;;;;;;5091089;28;21336;-37
2023/08/27 09:30:07;;;;;;;0.20;0.20;;;;;;;;;;5088712;28;20065;-38
2023/08/27 09:32:32;;;;;;;0.00;0.00;;;;;;;;;;5093827;28;20024;-38
2023/08/27 09:34:59;;;;;;;0.10;0.10;;;;;;;;;;5093445;28;20127;-37
2023/08/27 09:37:36;;;;;;;0.00;0.00;;;;;;;;;;5088237;28;20028;-40
2023/08/27 09:40:04;;;;;;;0.00;0.00;;;;;;;;;;5090644;28;20073;-39
2023/08/27 09:42:31;;;;;;;0.10;0.10;;;;;;;;;;5087837;28;20024;-39
2023/08/27 09:44:57;;;;;;;0.00;0.00;;;;;;;;;;5088775;28;20040;-39
2023/08/27 09:47:36;;;;;;;0.10;0.10;;;;;;;;;;5091202;28;20028;-39
2023/08/27 09:50:29;;;;;;;0.45;0.45;;;;;;;;;;5087054;28;20036;-39
2023/08/27 09:53:07;;;;;;;0.10;0.10;;;;;;;;;;5093959;28;20043;-39
2023/08/27 09:55:37;;;;;;;1.38;1.27;;;;;;;;;;5091762;28;20576;-39
2023/08/27 09:58:06;;;;;;;2.97;1.88;;;;;;;;;;5098716;28;20554;-40
2023/08/27 10:00:33;;;;;;;1.40;1.35;;;;;;;;;;5090193;28;20040;-39
2023/08/27 10:02:58;;;;;;;4.15;2.05;;;;;;;;;;5098254;28;20481;-39
2023/08/27 10:05:28;;;;;;;3.45;2.03;;;;;;;;;;5096219;28;20455;-39
2023/08/27 10:08:04;;;;;;;1.98;1.65;;;;;;;;;;5097853;28;20027;-39
2023/08/27 10:10:31;;;;;;;3.05;1.98;;;;;;;;;;5087913;28;20028;-39
2023/08/27 10:12:58;;;;;;;3.95;2.30;;;;;;;;;;5094243;28;20163;-39
2023/08/27 10:15:26;;;;;;;2.10;1.90;;;;;;;;;;5087308;28;20047;-39
2023/08/27 10:17:56;;;;;;;2.55;2.28;;;;;;;;;;5088877;28;20044;-39
2023/08/27 10:20:22;;;;;;;4.65;2.60;;;;;;;;;;5090415;28;20542;-38
2023/08/27 10:22:47;;;;;;;3.97;2.20;;;;;;;;;;5097185;28;20031;-39
2023/08/27 10:25:17;;;;;;;5.45;2.63;;;;;;;;;;5097302;28;20421;-39
2023/08/27 10:27:45;;;;;;;4.05;2.80;;;;;;;;;;5109656;28;20052;-39
2023/08/27 10:30:12;;;;;;;2.53;2.33;;;;;;;;;;5089563;28;20512;-39
2023/08/27 10:32:38;;;;;;;6.88;2.80;;;;;;;;;;5096721;28;20032;-39
2023/08/27 10:35:05;;;;;;;7.22;2.70;;;;;;;;;;5094344;28;20047;-39
2023/08/27 10:37:33;;;;;;;5.78;3.15;;;;;;;;;;5089847;28;20385;-40
2023/08/27 10:40:00;;;;;;;3.83;3.10;;;;;;;;;;5084275;28;20063;-39
2023/08/27 10:42:33;;;;;;;4.50;3.25;;;;;;;;;;5093467;28;20021;-39
2023/08/27 10:45:21;;;;;;;4.05;2.75;;;;;;;;;;5089104;28;20076;-38
2023/08/27 10:48:07;;;;;;;3.53;2.97;;;;;;;;;;5098300;28;20046;-38
2023/08/27 10:50:48;;;;;;;2.53;2.13;;;;;;;;;;5096604;28;20059;-39
2023/08/27 10:53:15;;;;;;;7.78;2.50;;;;;;;;;;5085483;28;20036;-39
2023/08/27 10:55:43;;;;;;;2.60;2.33;;;;;;;;;;5091301;28;20060;-39
2023/08/27 10:58:23;;;;;;;6.05;3.20;;;;;;;;;;5094967;28;20174;-39
2023/08/27 11:01:04;;;;;;;4.65;2.70;;;;;;;;;;5096569;28;20032;-38
2023/08/27 11:03:57;;;;;;;2.70;2.50;;;;;;;;;;5095830;28;20024;-39
2023/08/27 11:06:45;;;;;;;3.28;2.63;;;;;;;;;;5090463;28;20051;-39
2023/08/27 11:09:14;;;;;;;7.03;2.90;;;;;;;;;;5096658;28;20036;-39
2023/08/27 11:11:43;;;;;;;3.25;2.97;;;;;;;;;;5096648;28;20032;-39
2023/08/27 11:14:09;;;;;;;5.57;3.25;;;;;;;;;;5095078;28;20097;-39
2023/08/27 11:16:44;;;;;;;4.57;4.18;;;;;;;;;;5096464;28;20040;-39
2023/08/27 11:19:11;;;;;;;5.93;5.35;;;;;;;;;;5096225;28;20131;-39
2023/08/27 11:21:45;;;;;;;7.10;5.85;;;;;;;;;;5095864;28;20081;-39
2023/08/27 11:24:15;;;;;;;6.07;2.97;;;;;;;;;;5092828;28;20044;-39
2023/08/27 11:26:41;;;;;;;7.30;4.90;;;;;;;;;;5090090;28;20020;-39
2023/08/27 11:29:10;;;;;;;4.45;4.05;;;;;;;;;;5094166;28;20374;-39
2023/08/27 11:31:45;;;;;;;2.65;2.45;;;;;;;;;;5088547;28;20222;-39
2023/08/27 11:34:13;;;;;;;12.25;2.70;;;;;;;;;;5095250;28;20051;-40
2023/08/27 11:36:40;;;;;;;3.03;2.55;;;;;;;;;;5096658;28;20032;-39
2023/08/27 11:39:07;;;;;;;8.43;2.50;;;;;;;;;;5095235;28;20038;-39
2023/08/27 11:41:34;;;;;;;5.55;2.67;;;;;;;;;;5089321;28;20032;-40
2023/08/27 11:44:00;;;;;;;8.73;2.53;;;;;;;;;;5092988;28;20608;-39
2023/08/27 11:46:25;;;;;;;6.93;5.03;;;;;;;;;;5096508;28;20049;-39
2023/08/27 11:48:51;;;;;;;5.40;3.60;;;;;;;;;;5094125;28;20032;-39
2023/08/27 11:51:16;;;;;;;2.30;2.10;;;;;;;;;;5096338;28;20074;-40
2023/08/27 11:53:43;;;;;;;3.83;2.83;;;;;;;;;;5094012;28;20020;-39
2023/08/27 11:56:09;;;;;;;4.68;2.75;;;;;;;;;;5092252;28;20024;-38
2023/08/27 11:58:34;;;;;;;6.40;3.78;;;;;;;;;;5089503;28;20036;-40
2023/08/27 12:01:00;;;;;;;5.45;3.17;;;;;;;;;;5095033;28;20047;-39
2023/08/27 12:03:26;;;;;;;4.30;3.13;;;;;;;;;;5094624;28;20401;-39
2023/08/27 12:05:51;;;;;;;7.07;3.70;;;;;;;;;;5095944;28;20042;-38
2023/08/27 12:08:17;;;;;;;5.78;3.35;;;;;;;;;;5092321;28;20032;-39
2023/08/27 12:10:45;;;;;;;4.53;2.50;;;;;;;;;;5095139;28;20035;-39
2023/08/27 12:13:11;;;;;;;5.63;2.80;;;;;;;;;;5094207;28;20028;-39
2023/08/27 12:15:36;;;;;;;5.50;4.20;;;;;;;;;;5092397;28;20031;-39
2023/08/27 12:18:07;;;;;;;9.82;6.15;;;;;;;;;;5092909;28;20028;-39
2023/08/27 12:20:32;;;;;;;4.38;3.40;;;;;;;;;;5093555;28;20089;-39
2023/08/27 12:23:12;;;;;;;5.95;2.50;;;;;;;;;;5095267;28;20028;-39
2023/08/27 12:25:54;;;;;;;4.78;2.72;;;;;;;;;;5090273;28;20043;-39
2023/08/27 12:28:21;;;;;;;8.02;2.80;;;;;;;;;;5094671;28;20038;-39
2023/08/27 12:30:52;;;;;;;6.82;2.40;;;;;;;;;;5093607;28;20055;-39
2023/08/27 12:33:17;;;;;;;3.27;2.00;;;;;;;;;;5094278;28;20560;-40
2023/08/27 12:35:50;;;;;;;3.00;2.50;;;;;;;;;;5090396;28;20040;-40
2023/08/27 12:38:16;;;;;;;5.03;2.40;;;;;;;;;;5089759;28;20028;-39
2023/08/27 12:40:41;;;;;;;3.50;2.50;;;;;;;;;;5094463;28;20036;-39
2023/08/27 12:43:06;;;;;;;9.48;2.75;;;;;;;;;;5085212;28;20088;-39
2023/08/27 12:45:32;;;;;;;2.65;2.10;;;;;;;;;;5088556;28;20039;-39
2023/08/27 12:48:03;;;;;;;4.25;2.03;;;;;;;;;;5086613;28;20024;-38
2023/08/27 12:50:29;;;;;;;9.40;2.20;;;;;;;;;;5088452;28;20524;-39
2023/08/27 12:52:54;;;;;;;4.90;2.03;;;;;;;;;;5092203;28;20032;-39
2023/08/27 12:55:20;;;;;;;4.80;1.88;;;;;;;;;;5080717;28;20040;-40
2023/08/27 12:57:46;;;;;;;3.70;2.40;;;;;;;;;;5087519;28;20484;-39
2023/08/27 13:00:12;;;;;;;2.67;2.05;;;;;;;;;;5095143;28;20036;-39
2023/08/27 13:02:37;;;;;;;2.20;2.10;;;;;;;;;;5084215;28;20182;-40
2023/08/27 13:05:04;;;;;;;2.55;2.35;;;;;;;;;;5088022;28;20078;-39
2023/08/27 13:07:31;;;;;;;6.90;2.80;;;;;;;;;;5086996;28;20020;-36
2023/08/27 13:09:57;;;;;;;5.15;2.38;;;;;;;;;;5094370;28;20032;-37
2023/08/27 13:12:22;;;;;;;2.55;2.25;;;;;;;;;;5094695;28;20112;-36
2023/08/27 13:14:48;;;;;;;3.22;2.50;;;;;;;;;;5090426;28;20151;-36
2023/08/27 13:17:13;;;;;;;8.45;2.70;;;;;;;;;;5091179;28;20056;-37
2023/08/27 13:19:39;;;;;;;3.05;2.45;;;;;;;;;;5095304;28;20051;-36
2023/08/27 13:22:04;;;;;;;3.72;2.55;;;;;;;;;;5094901;28;20044;-36
2023/08/27 13:24:30;;;;;;;2.65;2.45;;;;;;;;;;5098849;28;20035;-36
2023/08/27 13:26:55;;;;;;;4.35;2.35;;;;;;;;;;5099077;28;20176;-37
2023/08/27 13:29:21;;;;;;;3.47;2.53;;;;;;;;;;5095964;28;20032;-36
2023/08/27 13:31:46;;;;;;;3.08;2.40;;;;;;;;;;5098052;28;20393;-37
2023/08/27 13:34:12;;;;;;;4.15;2.58;;;;;;;;;;5098648;28;20041;-37
2023/08/27 13:36:37;;;;;;;14.15;3.33;;;;;;;;;;5098266;28;20027;-36
2023/08/27 13:39:03;;;;;;;7.78;3.33;;;;;;;;;;5096153;28;20032;-37
2023/08/27 13:41:34;;;;;;;15.65;3.72;;;;;;;;;;5092197;28;20473;-36
2023/08/27 13:43:59;;;;;;;5.28;3.35;;;;;;;;;;5091750;28;20020;-37
2023/08/27 13:46:25;;;;;;;5.80;3.22;;;;;;;;;;5098550;28;20028;-38
2023/08/27 13:48:50;;;;;;;7.72;3.38;;;;;;;;;;5095438;28;20050;-37
2023/08/27 13:51:16;;;;;;;7.75;3.60;;;;;;;;;;5083350;28;20028;-36
2023/08/27 13:53:41;;;;;;;8.48;3.85;;;;;;;;;;5097623;28;20105;-35
2023/08/27 13:56:06;;;;;;;12.68;3.85;;;;;;;;;;5090036;28;20033;-37
2023/08/27 13:58:33;;;;;;;13.90;3.72;;;;;;;;;;5094578;28;20032;-37
2023/08/27 14:00:59;;;;;;;4.15;3.20;;;;;;;;;;5087644;28;20107;-37
2023/08/27 14:03:24;;;;;;;8.50;2.85;;;;;;;;;;5091828;28;20024;-36
2023/08/27 14:05:49;;;;;;;3.17;2.88;;;;;;;;;;5097343;28;20119;-36
2023/08/27 14:08:23;;;;;;;3.55;2.90;;;;;;;;;;5098591;28;20024;-37
2023/08/27 14:10:49;;;;;;;5.43;3.10;;;;;;;;;;5094920;28;20040;-37
2023/08/27 14:13:14;;;;;;;11.40;2.92;;;;;;;;;;5095220;28;20024;-37
2023/08/27 14:15:40;;;;;;;11.73;2.95;;;;;;;;;;5096753;28;20032;-40
2023/08/27 14:18:05;;;;;;;6.60;2.80;;;;;;;;;;5090571;28;20090;-39
2023/08/27 14:20:31;;;;;;;4.35;2.50;;;;;;;;;;5097246;28;20062;-39
2023/08/27 14:22:56;;;;;;;6.80;2.80;;;;;;;;;;5098363;28;20031;-39
2023/08/27 14:25:22;;;;;;;4.28;2.45;;;;;;;;;;5091893;28;20048;-39
2023/08/27 14:27:47;;;;;;;6.72;3.03;;;;;;;;;;5095724;28;20028;-40
2023/08/27 14:30:12;;;;;;;3.45;3.15;;;;;;;;;;5096258;28;20069;-40
2023/08/27 14:32:38;;;;;;;2.78;2.30;;;;;;;;;;5081318;28;20024;-39
2023/08/27 14:35:04;;;;;;;5.38;2.40;;;;;;;;;;5097185;28;20024;-38
2023/08/27 14:37:29;;;;;;;8.50;2.63;;;;;;;;;;5098251;28;20464;-39
2023/08/27 14:39:54;;;;;;;3.95;2.15;;;;;;;;;;5108217;28;20047;-39
2023/08/27 14:42:20;;;;;;;4.18;2.35;;;;;;;;;;5105860;28;20020;-39